RS-0012 weather

Titel Airstrip
Titel, Serbia

Public forecast

Using degrees Celsius for public forecast. Weather courtesy of forecast.io.

Closest aviation weather report (METAR) to Titel Airstrip

Closest report is Batajnica Air Base, 15.8 nm (29.2 km) S. Retrieved 2019/12/09 09:30 UTC (28 minutes ago):

LYBT 090930Z 14001KT CAVOK 08/07 Q1012 NOSIG

Closest aviation forecast (TAF) to Titel Airstrip

Closest forecast is Batajnica Air Base, 15.8 nm (29.2 km) S. Retrieved 2019/12/09 06:00 UTC (4 hours ago):

TAF COR LYBT 090510Z 0906/1006 12006KT 3000 BR NSC TX09/0913Z TNM01/0906Z TEMPO 0906/0908 1000 BECMG 0908/0910 9999 NSW 1003/1005 32014KT TEMPO 1003/1005 5000 RA